Time;durP1;ratioP1;P1;durP2;ratioP2;P2;SDS_P1;SDS_P2;PMS_P1;PMS_P2;Temp;Humidity;BMP_temperature;BMP_pressure;BME280_temperature;BME280_humidity;BME280_pressure;Samples;Min_cycle;Max_cycle;Signal;HPM_P1;HPM_P2
2023/05/24 00:00:29;;;;;;;23.60;5.93;;;9.80;98.00;;;;;;5078463;28;20040;-71
2023/05/24 00:02:56;;;;;;;21.13;5.63;;;9.80;98.20;;;;;;5078581;28;20051;-71
2023/05/24 00:05:22;;;;;;;25.95;5.55;;;9.80;98.30;;;;;;5061857;28;20409;-71
2023/05/24 00:07:48;;;;;;;25.73;5.72;;;9.90;98.30;;;;;;5078732;28;20400;-71
2023/05/24 00:10:13;;;;;;;25.90;5.75;;;9.90;98.50;;;;;;5078540;28;20043;-72
2023/05/24 00:12:39;;;;;;;22.70;5.72;;;9.90;98.70;;;;;;5078383;28;20044;-71
2023/05/24 00:15:06;;;;;;;26.83;5.85;;;9.90;98.70;;;;;;5078643;28;20028;-71
2023/05/24 00:17:33;;;;;;;27.63;5.90;;;9.80;98.80;;;;;;5078551;28;20042;-71
2023/05/24 00:19:59;;;;;;;27.20;6.45;;;9.80;98.90;;;;;;5078476;28;20535;-71
2023/05/24 00:22:24;;;;;;;27.05;6.07;;;9.90;99.30;;;;;;5078198;28;20074;-71
2023/05/24 00:24:50;;;;;;;25.85;6.07;;;9.90;99.40;;;;;;5078272;28;20081;-71
2023/05/24 00:27:16;;;;;;;25.73;6.25;;;9.90;99.60;;;;;;5078091;28;20085;-72
2023/05/24 00:29:41;;;;;;;28.30;6.22;;;9.90;99.70;;;;;;5077985;28;20032;-72
2023/05/24 00:32:07;;;;;;;20.58;5.70;;;9.90;99.90;;;;;;5061401;28;20054;-72
2023/05/24 00:34:33;;;;;;;30.15;6.95;;;9.90;99.90;;;;;;5077929;28;20032;-72
2023/05/24 00:36:59;;;;;;;22.83;5.20;;;10.00;99.90;;;;;;5078217;28;20058;-72
2023/05/24 00:39:25;;;;;;;30.95;6.60;;;10.00;99.90;;;;;;5077845;28;20044;-71
2023/05/24 00:41:51;;;;;;;27.50;6.45;;;10.00;99.90;;;;;;5077874;28;20127;-71
2023/05/24 00:44:16;;;;;;;20.80;5.50;;;10.00;99.90;;;;;;5077890;28;20068;-71
2023/05/24 00:46:43;;;;;;;25.08;6.47;;;10.00;99.90;;;;;;5078067;28;20036;-71
2023/05/24 00:49:09;;;;;;;26.35;5.60;;;9.90;99.90;;;;;;5060941;28;20036;-71
2023/05/24 00:51:35;;;;;;;25.88;6.43;;;9.90;99.90;;;;;;5077674;28;20040;-71
2023/05/24 00:54:01;;;;;;;27.60;6.90;;;9.90;99.90;;;;;;5077584;28;20036;-71
2023/05/24 00:56:27;;;;;;;24.40;6.05;;;9.90;99.90;;;;;;5060998;28;20089;-71
2023/05/24 00:58:54;;;;;;;24.63;6.85;;;9.80;99.90;;;;;;5077851;28;20115;-71
2023/05/24 01:01:24;;;;;;;28.20;6.65;;;9.80;99.90;;;;;;5060607;28;20036;-71
2023/05/24 01:03:53;;;;;;;29.33;6.30;;;9.80;99.90;;;;;;5077767;28;20050;-72
2023/05/24 01:06:20;;;;;;;28.30;6.68;;;9.70;99.90;;;;;;5076926;28;20131;-72
2023/05/24 01:09:24;;;;;;;27.80;5.93;;;9.70;99.90;;;;;;5077406;28;20491;-72
2023/05/24 01:11:59;;;;;;;23.85;5.28;;;9.70;99.90;;;;;;5077320;28;20492;-72
2023/05/24 01:15:05;;;;;;;28.45;6.47;;;9.70;99.90;;;;;;5077312;28;20044;-71
2023/05/24 01:17:41;;;;;;;29.00;6.07;;;9.70;99.90;;;;;;5073945;28;20161;-72
2023/05/24 01:20:10;;;;;;;24.08;6.15;;;9.70;99.90;;;;;;5077387;28;20040;-72
2023/05/24 01:22:50;;;;;;;26.52;6.05;;;9.70;99.90;;;;;;5060667;28;20123;-71
2023/05/24 01:25:40;;;;;;;23.52;5.72;;;9.70;99.90;;;;;;5077057;28;20101;-71
2023/05/24 01:28:08;;;;;;;26.73;6.00;;;9.70;99.90;;;;;;5077015;28;20393;-72
2023/05/24 01:30:35;;;;;;;25.73;6.28;;;9.60;99.90;;;;;;5077287;28;20093;-72
2023/05/24 01:33:01;;;;;;;28.63;6.15;;;9.60;99.90;;;;;;5076950;28;20044;-72
2023/05/24 01:35:27;;;;;;;23.80;5.55;;;9.60;99.90;;;;;;5060141;28;20564;-72
2023/05/24 01:37:52;;;;;;;22.48;6.68;;;9.60;99.90;;;;;;5060240;28;20145;-72
2023/05/24 01:40:18;;;;;;;29.23;6.47;;;9.60;99.90;;;;;;5076717;28;20036;-72
2023/05/24 01:43:03;;;;;;;23.48;5.60;;;9.60;99.90;;;;;;5076695;28;20040;-72
2023/05/24 01:45:49;;;;;;;21.48;5.68;;;9.60;99.90;;;;;;5060181;28;20055;-72
2023/05/24 01:48:22;;;;;;;32.53;7.68;;;9.60;99.90;;;;;;5076633;28;20035;-71
2023/05/24 01:50:53;;;;;;;25.67;6.57;;;9.50;99.90;;;;;;5076587;28;20040;-71
2023/05/24 01:53:21;;;;;;;22.95;5.95;;;9.50;99.90;;;;;;5076639;28;20036;-71
2023/05/24 01:55:50;;;;;;;31.70;6.78;;;9.50;99.90;;;;;;5076713;28;20062;-71
2023/05/24 01:58:19;;;;;;;30.02;7.43;;;9.50;99.90;;;;;;5076422;28;20036;-71
2023/05/24 02:00:45;;;;;;;26.90;7.55;;;9.50;99.90;;;;;;5059849;28;20105;-71
2023/05/24 02:03:13;;;;;;;28.98;6.72;;;9.50;99.90;;;;;;5059751;28;20484;-71
2023/05/24 02:05:39;;;;;;;23.10;5.95;;;9.40;99.90;;;;;;5076229;28;20044;-71
2023/05/24 02:08:04;;;;;;;28.45;7.05;;;9.40;99.90;;;;;;5076242;28;20040;-71
2023/05/24 02:10:30;;;;;;;28.00;7.97;;;9.50;99.90;;;;;;5076140;28;20047;-71
2023/05/24 02:12:58;;;;;;;24.58;6.20;;;9.40;99.90;;;;;;5076029;28;20048;-71
2023/05/24 02:15:24;;;;;;;27.55;6.43;;;9.40;99.90;;;;;;5076432;28;20036;-71
2023/05/24 02:17:53;;;;;;;23.25;6.63;;;9.40;99.90;;;;;;5075928;28;20556;-72
2023/05/24 02:20:21;;;;;;;27.58;6.97;;;9.40;99.90;;;;;;5076190;28;20040;-71
2023/05/24 02:22:47;;;;;;;25.70;5.80;;;9.50;99.90;;;;;;5075919;28;20504;-71
2023/05/24 02:25:13;;;;;;;22.50;6.32;;;9.50;99.90;;;;;;5076129;28;20040;-71
2023/05/24 02:27:39;;;;;;;27.85;6.35;;;9.50;99.90;;;;;;5076103;28;20046;-72
2023/05/24 02:30:05;;;;;;;27.05;5.82;;;9.50;99.90;;;;;;5059167;28;20516;-72
2023/05/24 02:32:31;;;;;;;23.10;5.60;;;9.50;99.90;;;;;;5075660;28;20100;-71
2023/05/24 02:35:00;;;;;;;23.85;5.82;;;9.60;99.90;;;;;;5075759;28;20032;-71
2023/05/24 02:37:26;;;;;;;28.45;6.88;;;9.60;99.90;;;;;;5075671;28;20123;-71
2023/05/24 02:39:52;;;;;;;28.73;6.20;;;9.60;99.90;;;;;;5075776;28;20489;-71
2023/05/24 02:42:18;;;;;;;23.52;6.10;;;9.60;99.90;;;;;;5075666;28;20123;-71
2023/05/24 02:44:46;;;;;;;26.15;6.22;;;9.60;99.90;;;;;;5075573;28;20032;-71
2023/05/24 02:47:12;;;;;;;23.35;6.13;;;9.60;99.90;;;;;;5075744;28;20051;-71
2023/05/24 02:49:38;;;;;;;20.58;5.80;;;9.60;99.90;;;;;;5075371;28;20448;-71
2023/05/24 02:52:04;;;;;;;35.33;6.40;;;9.60;99.90;;;;;;5075519;28;20051;-71
2023/05/24 02:54:29;;;;;;;28.17;5.43;;;9.60;99.90;;;;;;5076177;28;20047;-71
2023/05/24 02:56:56;;;;;;;24.65;6.03;;;9.60;99.90;;;;;;5075673;28;20043;-71
2023/05/24 02:59:22;;;;;;;28.75;6.90;;;9.60;99.90;;;;;;5075336;28;20035;-71
2023/05/24 03:01:48;;;;;;;26.67;6.18;;;9.60;99.90;;;;;;5075415;28;20059;-71
2023/05/24 03:04:14;;;;;;;23.75;6.35;;;9.60;99.90;;;;;;5075554;28;20409;-71
2023/05/24 03:06:39;;;;;;;27.30;6.30;;;9.60;99.90;;;;;;5075241;28;20044;-71
2023/05/24 03:09:05;;;;;;;24.63;5.85;;;9.60;99.90;;;;;;5075275;28;20551;-71
2023/05/24 03:11:31;;;;;;;28.02;6.57;;;9.60;99.90;;;;;;5075103;28;20079;-71
2023/05/24 03:13:57;;;;;;;29.15;6.50;;;9.60;99.90;;;;;;5075121;28;20131;-71
2023/05/24 03:16:22;;;;;;;23.73;6.25;;;9.60;99.90;;;;;;5075072;28;20085;-71
2023/05/24 03:18:52;;;;;;;22.63;6.50;;;9.60;99.90;;;;;;5075187;28;20085;-71
2023/05/24 03:21:19;;;;;;;28.15;5.72;;;9.70;99.90;;;;;;5075075;28;20534;-71
2023/05/24 03:23:45;;;;;;;21.17;6.28;;;9.60;99.90;;;;;;5075331;28;20044;-72
2023/05/24 03:26:12;;;;;;;25.92;6.10;;;9.70;99.90;;;;;;5075098;28;20097;-71
2023/05/24 03:28:39;;;;;;;26.95;5.72;;;9.70;99.90;;;;;;5074536;28;20075;-71
2023/05/24 03:31:05;;;;;;;18.27;5.70;;;9.70;99.90;;;;;;5058248;28;20086;-71
2023/05/24 03:33:31;;;;;;;25.17;6.60;;;9.70;99.90;;;;;;5058386;28;20044;-71
2023/05/24 03:35:57;;;;;;;23.90;5.63;;;9.70;99.90;;;;;;5075185;28;20048;-71
2023/05/24 03:38:22;;;;;;;19.40;5.45;;;9.70;99.90;;;;;;5074990;28;20502;-71
2023/05/24 03:40:48;;;;;;;28.25;6.18;;;9.70;99.90;;;;;;5074859;28;20040;-71
2023/05/24 03:43:14;;;;;;;24.55;6.90;;;9.70;99.90;;;;;;5058294;28;20062;-71
2023/05/24 03:45:39;;;;;;;28.20;6.30;;;9.70;99.90;;;;;;5075153;28;20044;-71
2023/05/24 03:48:05;;;;;;;22.92;5.80;;;9.60;99.90;;;;;;5074853;28;20412;-71
2023/05/24 03:50:31;;;;;;;24.35;6.60;;;9.70;99.90;;;;;;5058037;28;20044;-71
2023/05/24 03:52:57;;;;;;;25.42;6.13;;;9.70;99.90;;;;;;5074775;28;20055;-71
2023/05/24 03:55:22;;;;;;;28.65;6.47;;;9.70;99.90;;;;;;5075099;28;20029;-71
2023/05/24 03:57:48;;;;;;;23.98;5.75;;;9.80;99.90;;;;;;5074817;28;20401;-72
2023/05/24 04:00:14;;;;;;;23.73;5.30;;;9.80;99.90;;;;;;5074606;28;20040;-72
2023/05/24 04:02:39;;;;;;;25.50;5.85;;;9.80;99.90;;;;;;5074752;28;20081;-72
2023/05/24 04:05:08;;;;;;;16.30;5.18;;;9.80;99.90;;;;;;5074688;28;20039;-72
2023/05/24 04:07:37;;;;;;;26.95;5.75;;;9.90;99.90;;;;;;5074964;28;20040;-72
2023/05/24 04:10:07;;;;;;;28.77;5.57;;;9.80;99.90;;;;;;5074537;28;20096;-72
2023/05/24 04:12:33;;;;;;;26.17;4.93;;;9.90;99.90;;;;;;5074784;28;20047;-72
2023/05/24 04:14:59;;;;;;;23.08;5.78;;;9.80;99.90;;;;;;5057876;28;20032;-71
2023/05/24 04:17:26;;;;;;;23.25;5.85;;;9.90;99.90;;;;;;5074519;28;20089;-71
2023/05/24 04:19:52;;;;;;;25.98;6.00;;;9.80;99.90;;;;;;5074541;28;20036;-71
2023/05/24 04:22:18;;;;;;;27.08;5.60;;;9.80;99.90;;;;;;5074465;28;20040;-71
2023/05/24 04:24:44;;;;;;;23.88;5.53;;;9.80;99.90;;;;;;5074458;28;20047;-71
2023/05/24 04:27:10;;;;;;;24.00;6.28;;;9.90;99.90;;;;;;5074719;28;20075;-71
2023/05/24 04:29:37;;;;;;;28.38;5.97;;;9.90;99.90;;;;;;5074628;28;20493;-71
2023/05/24 04:32:03;;;;;;;21.25;5.93;;;9.90;99.90;;;;;;5074382;28;20042;-71
2023/05/24 04:34:32;;;;;;;21.60;5.43;;;9.90;99.90;;;;;;5074306;28;20040;-72
2023/05/24 04:36:58;;;;;;;24.13;4.82;;;9.90;99.90;;;;;;5057615;28;20043;-72
2023/05/24 04:39:24;;;;;;;19.15;4.93;;;10.00;99.90;;;;;;5074425;28;20067;-72
2023/05/24 04:41:51;;;;;;;23.20;5.60;;;10.00;99.90;;;;;;5076592;28;20117;-72
2023/05/24 04:44:17;;;;;;;26.55;5.40;;;10.10;99.90;;;;;;5061428;28;20055;-72
2023/05/24 04:46:43;;;;;;;25.67;5.63;;;10.10;99.90;;;;;;5077767;28;20039;-71
2023/05/24 04:49:08;;;;;;;27.13;5.18;;;10.20;99.90;;;;;;5078087;28;20043;-71
2023/05/24 04:51:37;;;;;;;24.02;4.90;;;10.20;99.90;;;;;;5077664;28;20492;-71
2023/05/24 04:54:07;;;;;;;21.30;4.97;;;10.20;99.90;;;;;;5061032;28;20036;-71
2023/05/24 04:56:37;;;;;;;24.42;5.97;;;10.20;99.90;;;;;;5061241;28;20040;-71
2023/05/24 04:59:04;;;;;;;19.02;4.63;;;10.30;99.90;;;;;;5077577;28;20040;-71
2023/05/24 05:01:30;;;;;;;22.02;5.30;;;10.30;99.90;;;;;;5077365;28;20039;-71
2023/05/24 05:03:56;;;;;;;23.25;5.07;;;10.40;99.90;;;;;;5060792;28;20040;-72
2023/05/24 05:06:21;;;;;;;23.13;5.28;;;10.40;99.90;;;;;;5077545;28;20126;-72
2023/05/24 05:08:47;;;;;;;20.52;5.18;;;10.50;99.90;;;;;;5077751;28;20052;-71
2023/05/24 05:11:13;;;;;;;25.02;6.47;;;10.50;99.90;;;;;;5077343;28;20040;-71
2023/05/24 05:13:39;;;;;;;25.17;5.32;;;10.50;99.90;;;;;;5077359;28;20036;-72
2023/05/24 05:16:05;;;;;;;23.15;4.90;;;10.60;99.90;;;;;;5077430;28;20118;-72
2023/05/24 05:18:30;;;;;;;35.47;6.10;;;10.70;99.90;;;;;;5077249;28;20128;-72
2023/05/24 05:20:57;;;;;;;22.98;4.38;;;10.70;99.90;;;;;;5060739;28;20036;-72
2023/05/24 05:23:22;;;;;;;23.15;5.30;;;10.80;99.90;;;;;;5060529;28;20048;-71
2023/05/24 05:25:48;;;;;;;22.48;5.68;;;10.90;99.90;;;;;;5077204;28;20044;-71
2023/05/24 05:28:13;;;;;;;23.88;4.90;;;11.00;99.90;;;;;;5077393;28;20044;-71
2023/05/24 05:30:39;;;;;;;26.75;5.20;;;11.00;99.90;;;;;;5077035;28;20127;-71
2023/05/24 05:33:05;;;;;;;25.15;4.72;;;11.10;99.90;;;;;;5060600;28;20048;-71
2023/05/24 05:35:32;;;;;;;22.25;5.20;;;11.10;99.90;;;;;;5077009;28;20404;-71
2023/05/24 05:37:57;;;;;;;19.42;4.80;;;11.10;99.90;;;;;;5076908;28;20048;-71
2023/05/24 05:40:23;;;;;;;26.73;5.43;;;11.10;99.90;;;;;;5077053;28;20043;-71
2023/05/24 05:42:48;;;;;;;27.25;5.88;;;11.20;99.90;;;;;;5076755;28;20072;-71
2023/05/24 05:45:15;;;;;;;17.65;4.57;;;11.30;99.90;;;;;;5076891;28;20044;-71
2023/05/24 05:47:41;;;;;;;20.50;5.68;;;11.40;99.90;;;;;;5076729;28;20083;-71
2023/05/24 05:50:07;;;;;;;24.48;5.07;;;11.40;99.90;;;;;;5060150;28;20050;-71
2023/05/24 05:52:33;;;;;;;18.70;4.57;;;11.50;99.90;;;;;;5076058;28;20416;-71
2023/05/24 05:54:59;;;;;;;22.88;4.60;;;11.60;99.90;;;;;;5076580;28;20089;-71
2023/05/24 05:57:25;;;;;;;26.00;4.85;;;11.60;99.90;;;;;;5076548;28;20036;-71
2023/05/24 05:59:51;;;;;;;20.38;4.55;;;11.70;99.90;;;;;;5076646;28;20119;-71
2023/05/24 06:02:21;;;;;;;19.98;4.60;;;11.70;99.90;;;;;;5076417;28;20480;-71
2023/05/24 06:04:48;;;;;;;20.17;4.97;;;11.70;99.90;;;;;;5076710;28;20412;-71
2023/05/24 06:07:13;;;;;;;20.98;4.65;;;11.80;99.90;;;;;;5076345;28;20044;-70
2023/05/24 06:09:39;;;;;;;20.25;4.60;;;11.80;99.90;;;;;;5076184;28;20043;-70
2023/05/24 06:12:05;;;;;;;23.05;4.97;;;11.80;99.90;;;;;;5076303;28;20084;-71
2023/05/24 06:14:31;;;;;;;30.52;5.88;;;11.90;99.90;;;;;;5076240;28;20043;-71
2023/05/24 06:16:57;;;;;;;22.85;4.93;;;11.90;99.90;;;;;;5076445;28;20048;-71
2023/05/24 06:19:23;;;;;;;21.70;5.03;;;12.00;99.90;;;;;;5076150;28;20484;-71
2023/05/24 06:21:49;;;;;;;18.88;4.93;;;12.10;99.90;;;;;;5075982;28;20044;-71
2023/05/24 06:24:20;;;;;;;23.00;4.55;;;12.20;99.90;;;;;;5076006;28;20051;-71
2023/05/24 06:26:50;;;;;;;24.02;4.85;;;12.30;99.90;;;;;;5059292;28;20511;-71
2023/05/24 06:29:19;;;;;;;16.27;4.57;;;12.40;99.90;;;;;;5076310;28;20066;-71
2023/05/24 06:31:46;;;;;;;17.63;5.20;;;12.60;99.90;;;;;;5059266;28;20046;-71
2023/05/24 06:34:12;;;;;;;26.58;5.55;;;12.70;99.90;;;;;;5059218;28;20043;-71
2023/05/24 06:36:41;;;;;;;17.95;4.90;;;12.80;99.90;;;;;;5076013;28;20040;-71
2023/05/24 06:39:09;;;;;;;23.13;5.07;;;12.90;99.90;;;;;;5076463;28;20063;-71
2023/05/24 06:41:34;;;;;;;22.30;4.90;;;12.90;99.90;;;;;;5075640;28;20040;-71
2023/05/24 06:44:00;;;;;;;20.35;4.40;;;12.90;99.90;;;;;;5075672;28;20036;-71
2023/05/24 06:46:26;;;;;;;18.50;4.82;;;13.00;99.90;;;;;;5075625;28;20046;-71
2023/05/24 06:48:51;;;;;;;19.98;4.68;;;13.10;99.90;;;;;;5075565;28;20032;-71
2023/05/24 06:51:17;;;;;;;23.05;4.88;;;13.10;99.90;;;;;;5075512;28;20184;-71
2023/05/24 06:53:43;;;;;;;18.35;4.82;;;13.20;99.90;;;;;;5058961;28;20032;-71
2023/05/24 06:56:09;;;;;;;21.67;4.45;;;13.20;99.90;;;;;;5059073;28;20469;-71
2023/05/24 06:58:35;;;;;;;23.20;5.22;;;13.30;99.90;;;;;;5075581;28;20036;-71
2023/05/24 07:01:02;;;;;;;17.30;4.00;;;13.30;99.90;;;;;;5075372;28;20393;-71
2023/05/24 07:03:27;;;;;;;17.02;3.92;;;13.40;99.90;;;;;;5074933;28;20047;-71
2023/05/24 07:05:53;;;;;;;20.73;4.18;;;13.40;99.70;;;;;;5075569;28;20511;-71
2023/05/24 07:08:18;;;;;;;20.65;3.97;;;13.50;99.30;;;;;;5075290;28;20518;-71
2023/05/24 07:10:44;;;;;;;19.42;4.50;;;13.60;98.60;;;;;;5058818;28;20051;-71
2023/05/24 07:13:12;;;;;;;14.88;3.50;;;13.70;98.30;;;;;;5075210;28;20450;-71
2023/05/24 07:15:40;;;;;;;17.50;3.55;;;13.90;98.00;;;;;;5075266;28;20093;-71
2023/05/24 07:18:06;;;;;;;17.35;4.47;;;14.10;97.60;;;;;;5075123;28;20500;-71
2023/05/24 07:20:32;;;;;;;13.52;3.17;;;14.10;97.40;;;;;;5075365;28;20040;-71
2023/05/24 07:22:59;;;;;;;15.20;4.07;;;14.20;96.80;;;;;;5058752;28;20036;-71
2023/05/24 07:25:25;;;;;;;15.20;3.00;;;14.20;96.30;;;;;;5075414;28;20040;-71
2023/05/24 07:27:51;;;;;;;15.57;3.80;;;14.20;95.70;;;;;;5075045;28;20043;-71
2023/05/24 07:30:17;;;;;;;12.38;3.40;;;14.20;95.20;;;;;;5075322;28;20048;-71
2023/05/24 07:32:43;;;;;;;16.98;3.30;;;14.20;94.70;;;;;;5075338;28;20389;-71
2023/05/24 07:35:11;;;;;;;12.73;3.40;;;14.30;94.50;;;;;;5075088;28;20032;-71
2023/05/24 07:37:37;;;;;;;19.08;3.10;;;14.40;94.40;;;;;;5058360;28;20088;-71
2023/05/24 07:40:04;;;;;;;12.73;3.33;;;14.50;94.00;;;;;;5075202;28;20032;-71
2023/05/24 07:42:30;;;;;;;12.52;3.03;;;14.60;93.10;;;;;;5075035;28;20035;-72
2023/05/24 07:44:56;;;;;;;17.33;3.80;;;14.70;92.90;;;;;;5074961;28;20044;-71
2023/05/24 07:47:21;;;;;;;15.68;3.42;;;14.70;92.50;;;;;;5075190;28;20048;-71
2023/05/24 07:49:47;;;;;;;13.25;3.35;;;14.70;92.20;;;;;;5074845;28;20404;-71
2023/05/24 07:52:13;;;;;;;12.23;3.20;;;14.60;91.80;;;;;;5058535;28;20048;-71
2023/05/24 07:54:39;;;;;;;12.73;3.25;;;14.60;91.60;;;;;;5074846;28;20036;-71
2023/05/24 07:57:06;;;;;;;17.52;3.50;;;14.60;91.30;;;;;;5074907;28;20044;-71
2023/05/24 07:59:32;;;;;;;12.00;3.30;;;14.70;91.30;;;;;;5074745;28;20123;-71
2023/05/24 08:02:04;;;;;;;16.42;3.55;;;14.70;91.20;;;;;;5074745;28;20118;-71
2023/05/24 08:04:30;;;;;;;13.75;3.20;;;14.70;90.70;;;;;;5075054;28;20036;-71
2023/05/24 08:06:56;;;;;;;15.40;2.92;;;14.80;90.50;;;;;;5074627;28;20500;-71
2023/05/24 08:09:22;;;;;;;15.15;3.47;;;14.80;90.20;;;;;;5074747;28;20048;-71
2023/05/24 08:11:48;;;;;;;12.43;3.05;;;14.80;89.20;;;;;;5074907;28;20093;-71
2023/05/24 08:14:13;;;;;;;12.32;2.95;;;14.90;88.60;;;;;;5074658;28;20044;-71
2023/05/24 08:16:39;;;;;;;10.93;3.20;;;15.00;88.80;;;;;;5078245;28;20121;-71
2023/05/24 08:19:05;;;;;;;12.77;3.15;;;15.20;88.60;;;;;;5078700;28;20063;-71
2023/05/24 08:21:32;;;;;;;11.77;3.20;;;15.20;88.10;;;;;;5078279;28;20032;-71
2023/05/24 08:23:59;;;;;;;13.70;3.22;;;15.20;87.10;;;;;;5078348;28;20093;-71
2023/05/24 08:26:25;;;;;;;13.77;3.90;;;15.20;86.30;;;;;;5061568;28;20135;-71
2023/05/24 08:28:51;;;;;;;12.93;3.50;;;15.40;86.50;;;;;;5078494;28;20114;-71
2023/05/24 08:31:17;;;;;;;12.15;3.22;;;15.60;86.30;;;;;;5078612;28;20115;-71
2023/05/24 08:33:43;;;;;;;16.55;3.50;;;15.70;85.00;;;;;;5078187;28;20577;-71
2023/05/24 08:36:08;;;;;;;13.40;2.95;;;15.70;84.70;;;;;;5061657;28;20401;-71
2023/05/24 08:38:34;;;;;;;11.05;2.78;;;15.80;84.10;;;;;;5078293;28;20489;-71
2023/05/24 08:41:06;;;;;;;17.65;3.60;;;16.00;84.00;;;;;;5077900;28;20039;-71
2023/05/24 08:43:32;;;;;;;13.93;3.35;;;16.30;84.50;;;;;;5061410;28;20560;-71
2023/05/24 08:46:00;;;;;;;13.30;2.85;;;16.50;83.70;;;;;;5077898;28;20044;-71
2023/05/24 08:48:27;;;;;;;14.00;3.58;;;16.50;82.20;;;;;;5077841;28;20044;-71
2023/05/24 08:50:54;;;;;;;12.50;3.30;;;16.40;81.60;;;;;;5077750;28;20078;-71
2023/05/24 08:53:23;;;;;;;11.95;2.97;;;16.30;80.70;;;;;;5077754;28;20488;-71
2023/05/24 08:55:52;;;;;;;16.02;3.70;;;16.20;81.20;;;;;;5077678;28;20035;-71
2023/05/24 08:58:18;;;;;;;17.67;3.45;;;16.30;82.00;;;;;;5077998;28;20180;-71
2023/05/24 09:00:43;;;;;;;14.32;3.63;;;16.60;82.30;;;;;;5077779;28;20039;-71
2023/05/24 09:03:10;;;;;;;13.13;3.17;;;16.80;81.40;;;;;;5077638;28;20450;-71
2023/05/24 09:05:36;;;;;;;12.35;3.65;;;16.80;80.10;;;;;;5077548;28;20493;-71
2023/05/24 09:08:02;;;;;;;13.40;3.55;;;16.80;80.10;;;;;;5077531;28;20047;-71
2023/05/24 09:10:31;;;;;;;15.13;3.58;;;16.70;80.10;;;;;;5077730;28;20044;-71
2023/05/24 09:12:58;;;;;;;13.85;3.72;;;16.80;80.00;;;;;;5077304;28;20475;-71
2023/05/24 09:15:24;;;;;;;15.52;3.58;;;16.90;79.80;;;;;;5077638;28;20140;-71
2023/05/24 09:17:50;;;;;;;13.20;3.63;;;16.80;79.40;;;;;;5077609;28;20484;-71
2023/05/24 09:20:16;;;;;;;12.13;3.15;;;16.70;79.10;;;;;;5077266;28;20477;-71
2023/05/24 09:22:42;;;;;;;11.10;3.50;;;16.60;78.70;;;;;;5077235;28;20564;-71
2023/05/24 09:25:11;;;;;;;11.32;3.55;;;16.70;78.70;;;;;;5077231;28;20048;-71
2023/05/24 09:27:37;;;;;;;11.30;3.03;;;16.80;78.10;;;;;;5059908;28;20131;-71
2023/05/24 09:30:07;;;;;;;11.90;3.13;;;17.00;78.30;;;;;;5077107;28;20123;-71
2023/05/24 09:32:32;;;;;;;9.73;2.58;;;17.20;77.80;;;;;;5077126;28;20032;-71
2023/05/24 09:34:58;;;;;;;8.85;3.20;;;17.30;76.50;;;;;;5060334;28;20135;-71
2023/05/24 09:37:26;;;;;;;11.43;2.85;;;17.40;76.40;;;;;;5077017;28;20051;-71
2023/05/24 09:39:52;;;;;;;11.85;3.42;;;17.60;75.20;;;;;;5076833;28;20036;-71
2023/05/24 09:42:23;;;;;;;8.93;2.35;;;17.80;76.30;;;;;;5077138;28;20089;-71
2023/05/24 09:44:57;;;;;;;10.73;2.85;;;18.00;75.10;;;;;;5060454;28;20507;-71
2023/05/24 09:47:31;;;;;;;8.43;2.40;;;18.00;73.90;;;;;;5077122;28;20047;-71
2023/05/24 09:49:58;;;;;;;7.32;2.45;;;18.00;71.70;;;;;;5076951;28;20063;-71
2023/05/24 09:52:24;;;;;;;7.15;2.60;;;18.00;71.30;;;;;;5076870;28;20044;-71
2023/05/24 09:54:50;;;;;;;8.93;2.50;;;18.10;70.90;;;;;;5076549;28;20043;-71
2023/05/24 09:57:16;;;;;;;7.15;2.60;;;18.10;70.10;;;;;;5060118;28;20031;-71
2023/05/24 09:59:43;;;;;;;9.15;2.47;;;18.10;70.80;;;;;;5076417;28;20554;-71
2023/05/24 10:02:11;;;;;;;8.88;2.13;;;18.10;70.20;;;;;;5059738;28;20032;-71
2023/05/24 10:04:40;;;;;;;10.50;2.38;;;18.20;69.80;;;;;;5076428;28;20071;-71
2023/05/24 10:07:07;;;;;;;8.32;2.83;;;18.50;70.00;;;;;;5076429;28;20051;-71
2023/05/24 10:09:34;;;;;;;6.70;2.25;;;18.70;70.20;;;;;;5076518;28;20464;-71
2023/05/24 10:12:05;;;;;;;9.07;3.03;;;18.90;69.50;;;;;;5076282;28;20079;-71
2023/05/24 10:14:37;;;;;;;8.85;2.95;;;19.00;67.90;;;;;;5076185;28;20048;-71
2023/05/24 10:17:06;;;;;;;10.60;2.53;;;18.90;67.80;;;;;;5076197;28;20072;-71
2023/05/24 10:19:36;;;;;;;10.98;2.80;;;18.80;69.00;;;;;;5059478;28;20032;-71
2023/05/24 10:22:07;;;;;;;9.02;2.47;;;18.70;68.10;;;;;;5059416;28;20032;-71
2023/05/24 10:24:42;;;;;;;9.63;2.63;;;18.70;67.70;;;;;;5076017;28;20051;-71
2023/05/24 10:27:14;;;;;;;10.05;3.00;;;19.00;67.00;;;;;;5059584;28;20051;-71
2023/05/24 10:29:45;;;;;;;10.10;2.92;;;19.10;67.20;;;;;;5075891;28;20096;-71
2023/05/24 10:32:14;;;;;;;14.43;3.10;;;19.30;67.00;;;;;;5075910;28;20043;-71
2023/05/24 10:34:41;;;;;;;9.20;2.00;;;19.50;67.50;;;;;;5075757;28;20048;-71
2023/05/24 10:37:08;;;;;;;8.15;2.00;;;19.60;64.90;;;;;;5076336;28;20090;-71
2023/05/24 10:39:34;;;;;;;12.35;3.20;;;19.50;64.70;;;;;;5075927;28;20181;-71
2023/05/24 10:42:05;;;;;;;11.50;2.67;;;19.50;64.60;;;;;;5059463;28;20438;-71
2023/05/24 10:44:31;;;;;;;7.70;2.53;;;19.70;64.80;;;;;;5075903;28;20040;-71
2023/05/24 10:47:11;;;;;;;8.98;2.55;;;19.90;64.00;;;;;;5076786;28;20177;-71
2023/05/24 10:49:38;;;;;;;8.65;2.53;;;20.20;63.40;;;;;;5075726;28;20047;-71
2023/05/24 10:52:12;;;;;;;10.65;2.67;;;20.00;63.50;;;;;;5075595;28;20040;-71
2023/05/24 10:54:38;;;;;;;9.43;2.22;;;19.70;61.70;;;;;;5075397;28;20101;-71
2023/05/24 10:57:05;;;;;;;6.57;2.20;;;19.50;63.10;;;;;;5075501;28;20044;-71
2023/05/24 10:59:36;;;;;;;8.60;2.78;;;19.20;63.20;;;;;;5075541;28;20079;-71
2023/05/24 11:02:04;;;;;;;10.90;2.80;;;18.90;63.70;;;;;;5058860;28;20028;-71
2023/05/24 11:04:37;;;;;;;9.88;2.72;;;18.60;63.70;;;;;;5075629;28;20127;-71
2023/05/24 11:07:04;;;;;;;9.18;2.88;;;18.40;64.30;;;;;;5058612;28;20040;-71
2023/05/24 11:09:32;;;;;;;8.90;2.67;;;18.20;64.90;;;;;;5058527;28;20048;-71
2023/05/24 11:12:07;;;;;;;11.63;2.85;;;18.30;65.70;;;;;;5075274;28;20044;-71
2023/05/24 11:14:41;;;;;;;8.18;2.60;;;18.20;65.80;;;;;;5075187;28;20040;-71
2023/05/24 11:17:07;;;;;;;8.15;2.47;;;18.10;66.20;;;;;;5075237;28;20040;-71
2023/05/24 11:19:36;;;;;;;8.43;2.28;;;18.00;66.50;;;;;;5075142;28;20028;-71
2023/05/24 11:22:13;;;;;;;8.50;2.60;;;17.90;66.50;;;;;;5075253;28;20075;-71
2023/05/24 11:24:40;;;;;;;8.85;2.30;;;17.80;67.50;;;;;;5058780;28;20040;-71
2023/05/24 11:27:06;;;;;;;7.93;2.53;;;17.80;68.10;;;;;;5075150;28;20048;-71
2023/05/24 11:29:38;;;;;;;10.63;2.63;;;17.70;68.50;;;;;;5075245;28;20135;-71
2023/05/24 11:32:06;;;;;;;11.70;2.97;;;17.70;68.30;;;;;;5058373;28;20131;-71
2023/05/24 11:34:33;;;;;;;14.18;2.88;;;17.50;68.20;;;;;;5075012;28;20565;-71
2023/05/24 11:37:00;;;;;;;8.73;2.13;;;17.40;68.60;;;;;;5075128;28;20069;-71
2023/05/24 11:39:30;;;;;;;10.70;2.70;;;17.30;69.00;;;;;;5075027;28;20040;-71
2023/05/24 11:41:56;;;;;;;10.98;3.05;;;17.20;69.30;;;;;;5058341;28;20036;-71
2023/05/24 11:44:21;;;;;;;11.63;3.13;;;17.00;70.20;;;;;;5058307;28;20049;-71
2023/05/24 11:46:47;;;;;;;11.55;3.00;;;17.00;70.90;;;;;;5075044;28;20036;-71
2023/05/24 11:49:14;;;;;;;14.90;4.10;;;17.00;71.60;;;;;;5074892;28;20040;-71
2023/05/24 11:51:40;;;;;;;12.05;3.00;;;17.10;71.90;;;;;;5078775;28;20048;-71
2023/05/24 11:54:06;;;;;;;11.13;2.90;;;17.10;71.90;;;;;;5078863;28;20040;-71
2023/05/24 11:56:32;;;;;;;12.07;3.03;;;17.10;71.90;;;;;;5078923;28;20036;-71
2023/05/24 11:59:21;;;;;;;15.25;3.20;;;17.20;72.10;;;;;;5062449;28;20040;-71
2023/05/24 12:01:46;;;;;;;14.48;3.72;;;17.20;72.30;;;;;;5061987;28;20068;-71
2023/05/24 12:04:12;;;;;;;12.02;3.25;;;17.20;72.20;;;;;;5079104;28;20068;-71
2023/05/24 12:06:42;;;;;;;11.38;3.05;;;17.20;72.20;;;;;;5096917;28;20543;-71
2023/05/24 12:09:09;;;;;;;16.20;3.13;;;17.10;71.70;;;;;;5078636;28;20462;-71
2023/05/24 12:11:43;;;;;;;12.52;3.65;;;17.10;71.80;;;;;;5078533;28;20493;-71
2023/05/24 12:14:31;;;;;;;15.30;3.58;;;17.10;71.70;;;;;;5078563;28;20439;-71
2023/05/24 12:16:58;;;;;;;10.98;2.70;;;17.10;71.50;;;;;;5078571;28;20032;-71
2023/05/24 12:19:28;;;;;;;12.85;3.28;;;17.10;71.70;;;;;;5078691;28;20113;-71
2023/05/24 12:21:55;;;;;;;10.43;2.78;;;17.10;72.00;;;;;;5078480;28;20075;-71
2023/05/24 12:24:22;;;;;;;10.98;3.03;;;17.10;71.90;;;;;;5061661;28;20469;-71
2023/05/24 12:26:48;;;;;;;13.27;2.72;;;17.00;72.00;;;;;;5078600;28;20048;-71
2023/05/24 12:29:15;;;;;;;9.85;2.88;;;16.90;71.40;;;;;;5078204;28;20052;-71
2023/05/24 12:31:41;;;;;;;13.55;2.90;;;16.80;71.10;;;;;;5078289;28;20048;-71
2023/05/24 12:34:11;;;;;;;11.95;2.75;;;16.60;71.40;;;;;;5061294;28;20032;-71
2023/05/24 12:36:37;;;;;;;12.98;2.50;;;16.50;71.40;;;;;;5061394;28;20032;-71
2023/05/24 12:39:23;;;;;;;10.82;2.85;;;16.40;72.00;;;;;;5078365;28;20127;-71
2023/05/24 12:41:54;;;;;;;8.10;2.40;;;16.40;72.60;;;;;;5077989;28;20036;-71